Time;durP1;ratioP1;P1;durP2;ratioP2;P2;SDS_P1;SDS_P2;PMS_P1;PMS_P2;Temp;Humidity;BMP_temperature;BMP_pressure;BME280_temperature;BME280_humidity;BME280_pressure;Samples;Min_cycle;Max_cycle;Signal;HPM_P1;HPM_P2
2022/04/20 00:02:20;;;;;;;17.60;12.45;;;0.60;99.90;;;;;;5227859;28;20025;-70
2022/04/20 00:04:53;;;;;;;20.75;13.32;;;0.70;99.90;;;;;;5227423;28;20044;-70
2022/04/20 00:07:24;;;;;;;17.48;11.43;;;0.70;99.90;;;;;;5227775;28;20100;-70
2022/04/20 00:09:55;;;;;;;19.15;11.98;;;1.00;99.90;;;;;;5227659;28;20464;-70
2022/04/20 00:12:26;;;;;;;20.05;13.70;;;0.90;99.90;;;;;;5227858;28;20032;-70
2022/04/20 00:14:57;;;;;;;20.58;11.60;;;0.80;99.90;;;;;;5227606;28;20100;-71
2022/04/20 00:17:28;;;;;;;21.25;12.50;;;0.90;99.90;;;;;;5227633;28;20440;-70
2022/04/20 00:19:59;;;;;;;20.63;12.25;;;0.80;99.90;;;;;;5227567;28;20049;-69
2022/04/20 00:22:30;;;;;;;23.27;13.95;;;0.80;99.90;;;;;;5227816;28;20032;-70
2022/04/20 00:25:01;;;;;;;20.00;12.57;;;0.80;99.90;;;;;;5227540;28;20097;-70
2022/04/20 00:27:36;;;;;;;21.98;13.10;;;1.00;99.90;;;;;;5226122;28;20041;-70
2022/04/20 00:30:09;;;;;;;27.25;16.00;;;1.10;99.90;;;;;;5227157;28;20375;-70
2022/04/20 00:32:40;;;;;;;25.10;13.52;;;0.80;99.90;;;;;;5227286;28;20032;-70
2022/04/20 00:35:11;;;;;;;29.00;17.00;;;0.70;99.90;;;;;;5227105;28;20099;-70
2022/04/20 00:37:42;;;;;;;26.85;14.63;;;0.60;99.90;;;;;;5227415;28;20037;-69
2022/04/20 00:40:13;;;;;;;27.55;16.38;;;0.90;99.90;;;;;;5227214;28;20364;-71
2022/04/20 00:42:44;;;;;;;33.67;17.17;;;0.90;99.90;;;;;;5227292;28;20107;-70
2022/04/20 00:45:15;;;;;;;37.58;16.63;;;1.10;99.90;;;;;;5225486;28;20021;-70
2022/04/20 00:47:46;;;;;;;48.25;21.20;;;1.10;99.90;;;;;;5225434;28;20036;-70
2022/04/20 00:50:17;;;;;;;39.30;19.48;;;1.00;99.90;;;;;;5225939;28;20021;-70
2022/04/20 00:52:48;;;;;;;34.63;17.88;;;1.20;99.90;;;;;;5227243;28;20555;-70
2022/04/20 00:55:19;;;;;;;33.92;17.52;;;1.60;99.90;;;;;;5225949;28;20116;-70
2022/04/20 00:57:50;;;;;;;32.80;17.77;;;1.80;99.90;;;;;;5227130;28;20033;-71
2022/04/20 01:00:21;;;;;;;36.47;16.08;;;1.80;99.90;;;;;;5227056;28;20101;-70
2022/04/20 01:02:52;;;;;;;44.13;17.33;;;1.60;99.90;;;;;;5227282;28;20480;-70
2022/04/20 01:05:23;;;;;;;45.92;18.80;;;1.60;99.90;;;;;;5226698;28;20041;-70
2022/04/20 01:07:55;;;;;;;26.65;16.38;;;1.50;99.90;;;;;;5227183;28;20044;-70
2022/04/20 01:10:26;;;;;;;56.30;19.92;;;1.80;99.90;;;;;;5226992;28;20104;-70
2022/04/20 01:12:57;;;;;;;39.80;18.55;;;1.50;99.90;;;;;;5226878;28;20096;-70
2022/04/20 01:15:28;;;;;;;43.33;18.48;;;1.60;99.90;;;;;;5226803;28;20021;-70
2022/04/20 01:17:59;;;;;;;39.00;17.02;;;1.80;99.90;;;;;;5226801;28;20017;-70
2022/04/20 01:20:30;;;;;;;45.63;18.58;;;1.70;99.90;;;;;;5227087;28;20044;-70
2022/04/20 01:23:01;;;;;;;41.05;17.85;;;1.90;99.90;;;;;;5226976;28;20434;-71
2022/04/20 01:25:32;;;;;;;36.72;17.08;;;1.70;99.90;;;;;;5226775;28;20127;-70
2022/04/20 01:28:04;;;;;;;30.95;14.82;;;1.60;99.90;;;;;;5226639;28;20048;-70
2022/04/20 01:30:35;;;;;;;94.57;18.40;;;1.80;99.90;;;;;;5226823;28;20017;-70
2022/04/20 01:33:06;;;;;;;130.88;17.20;;;1.30;99.90;;;;;;5226795;28;20066;-70
2022/04/20 01:35:37;;;;;;;51.88;15.82;;;1.40;99.90;;;;;;5226803;28;20108;-70
2022/04/20 01:38:08;;;;;;;101.63;18.02;;;1.60;99.90;;;;;;5226828;28;20037;-70
2022/04/20 01:40:38;;;;;;;128.25;17.63;;;1.70;99.90;;;;;;5226691;28;20021;-70
2022/04/20 01:43:09;;;;;;;78.97;16.92;;;1.50;99.90;;;;;;5227958;28;20024;-70
2022/04/20 01:45:40;;;;;;;59.92;16.20;;;1.50;99.90;;;;;;5229095;28;20100;-70
2022/04/20 01:48:11;;;;;;;76.32;14.63;;;1.70;99.90;;;;;;5230260;28;20037;-70
2022/04/20 01:53:33;;;;;;;41.50;15.02;;;1.70;99.90;;;;;;5209116;28;20060;-70
2022/04/20 01:56:06;;;;;;;151.73;17.98;;;1.70;99.90;;;;;;5230255;28;20021;-70
2022/04/20 01:58:41;;;;;;;116.63;17.38;;;1.40;99.90;;;;;;5230230;28;20065;-71
2022/04/20 02:04:01;;;;;;;393.00;25.05;;;1.70;99.90;;;;;;5229747;28;20094;-70
2022/04/20 02:06:32;;;;;;;287.23;22.88;;;1.10;99.90;;;;;;5228431;28;20041;-70
2022/04/20 02:09:03;;;;;;;169.02;19.35;;;1.00;99.90;;;;;;5229847;28;20069;-71
2022/04/20 02:11:35;;;;;;;60.05;17.30;;;1.20;99.90;;;;;;5229825;28;20102;-70
2022/04/20 02:14:06;;;;;;;174.20;20.20;;;1.30;99.90;;;;;;5229833;28;20029;-70
2022/04/20 02:16:37;;;;;;;53.00;16.23;;;1.30;99.90;;;;;;5229775;28;20024;-70
2022/04/20 02:19:07;;;;;;;130.30;17.05;;;1.60;99.90;;;;;;5229672;28;20031;-70
2022/04/20 02:21:38;;;;;;;86.35;16.50;;;1.10;99.90;;;;;;5228567;28;20021;-70
2022/04/20 02:24:10;;;;;;;36.17;14.15;;;1.00;99.90;;;;;;5229780;28;20029;-70
2022/04/20 02:26:41;;;;;;;75.88;15.57;;;1.00;99.90;;;;;;5229557;28;20017;-70
2022/04/20 02:29:12;;;;;;;35.50;13.98;;;1.10;99.90;;;;;;5229432;28;20349;-70
2022/04/20 02:31:43;;;;;;;20.65;12.15;;;1.20;99.90;;;;;;5229439;28;20023;-70
2022/04/20 02:34:14;;;;;;;23.58;11.75;;;1.20;99.90;;;;;;5229521;28;20369;-71
2022/04/20 02:36:45;;;;;;;68.72;14.45;;;1.30;99.90;;;;;;5229247;28;20056;-79
2022/04/20 02:39:15;;;;;;;34.92;13.10;;;1.00;99.90;;;;;;5229244;28;20021;-70
2022/04/20 02:41:47;;;;;;;69.38;14.95;;;1.10;99.90;;;;;;5229398;28;20025;-70
2022/04/20 02:44:17;;;;;;;21.48;11.65;;;0.80;99.90;;;;;;5229197;28;20440;-70
2022/04/20 02:46:48;;;;;;;20.48;12.35;;;1.30;99.90;;;;;;5229219;28;20044;-70
2022/04/20 02:49:21;;;;;;;23.30;11.30;;;1.30;99.90;;;;;;5229144;28;20411;-70
2022/04/20 02:51:52;;;;;;;19.92;11.43;;;1.30;99.90;;;;;;5229155;28;20017;-70
2022/04/20 02:54:22;;;;;;;20.00;10.95;;;1.20;99.90;;;;;;5228665;28;20082;-70
2022/04/20 02:56:53;;;;;;;20.58;10.02;;;1.00;99.90;;;;;;5228847;28;20056;-70
2022/04/20 02:59:24;;;;;;;19.40;10.18;;;1.00;99.90;;;;;;5228936;28;20021;-70
2022/04/20 03:01:55;;;;;;;17.08;10.80;;;0.70;99.90;;;;;;5228935;28;20506;-71
2022/04/20 03:04:26;;;;;;;16.77;10.32;;;0.70;99.90;;;;;;5228088;28;20112;-70
2022/04/20 03:06:56;;;;;;;15.90;10.27;;;1.00;99.90;;;;;;5228617;28;20061;-70
2022/04/20 03:09:27;;;;;;;15.27;9.70;;;1.10;99.90;;;;;;5228635;28;20064;-70
2022/04/20 03:11:58;;;;;;;20.35;11.05;;;1.20;99.90;;;;;;5228755;28;20029;-70
2022/04/20 03:14:29;;;;;;;16.48;10.63;;;0.70;99.90;;;;;;5228582;28;20033;-70
2022/04/20 03:17:00;;;;;;;18.73;11.13;;;0.60;99.90;;;;;;5228673;28;20025;-70
2022/04/20 03:19:30;;;;;;;20.27;12.63;;;0.70;99.90;;;;;;5228584;28;20032;-71
2022/04/20 03:22:01;;;;;;;26.65;15.07;;;0.90;99.90;;;;;;5227345;28;20115;-70
2022/04/20 03:24:32;;;;;;;24.88;15.93;;;1.30;99.90;;;;;;5228472;28;20036;-70
2022/04/20 03:27:03;;;;;;;29.92;17.17;;;1.10;99.90;;;;;;5228143;28;20017;-70
2022/04/20 03:29:34;;;;;;;27.33;15.93;;;1.20;99.90;;;;;;5228405;28;20068;-70
2022/04/20 03:32:10;;;;;;;26.08;15.75;;;1.30;99.90;;;;;;5228315;28;20013;-70
2022/04/20 03:34:41;;;;;;;22.73;14.35;;;1.40;99.90;;;;;;5228116;28;20037;-71
2022/04/20 03:37:13;;;;;;;33.25;18.55;;;1.30;99.90;;;;;;5228010;28;20033;-70
2022/04/20 03:39:44;;;;;;;34.80;18.83;;;1.10;99.90;;;;;;5228125;28;20412;-79
2022/04/20 03:42:15;;;;;;;39.03;20.50;;;1.20;99.90;;;;;;5227011;28;20025;-70
2022/04/20 03:44:46;;;;;;;48.15;22.02;;;1.10;99.90;;;;;;5228179;28;20027;-71
2022/04/20 03:47:17;;;;;;;52.95;23.05;;;1.00;99.90;;;;;;5226800;28;20472;-70
2022/04/20 03:49:48;;;;;;;45.35;23.45;;;0.90;99.90;;;;;;5227973;28;20025;-70
2022/04/20 03:52:18;;;;;;;42.53;22.52;;;1.20;99.90;;;;;;5227959;28;20021;-71
2022/04/20 03:54:50;;;;;;;37.40;20.95;;;1.40;99.90;;;;;;5227734;28;20029;-70
2022/04/20 03:57:21;;;;;;;42.67;22.13;;;1.60;99.90;;;;;;5227924;28;20021;-70
2022/04/20 03:59:52;;;;;;;36.67;20.73;;;1.40;99.90;;;;;;5228046;28;20025;-70
2022/04/20 04:02:23;;;;;;;34.78;19.35;;;1.20;99.90;;;;;;5227781;28;20029;-70
2022/04/20 04:04:54;;;;;;;45.25;20.70;;;1.50;99.90;;;;;;5227258;28;20427;-70
2022/04/20 04:07:25;;;;;;;41.83;19.95;;;1.60;99.90;;;;;;5227270;28;20033;-71
2022/04/20 04:09:56;;;;;;;51.55;18.85;;;1.60;99.90;;;;;;5226429;28;20129;-70
2022/04/20 04:12:27;;;;;;;35.47;18.30;;;1.50;99.90;;;;;;5227784;28;20025;-70
2022/04/20 04:14:58;;;;;;;33.50;18.63;;;1.80;99.90;;;;;;5227317;28;20021;-70
2022/04/20 04:17:28;;;;;;;31.85;17.95;;;1.70;99.90;;;;;;5227480;28;20472;-71
2022/04/20 04:19:59;;;;;;;29.95;17.55;;;1.90;99.90;;;;;;5227542;28;20064;-71
2022/04/20 04:22:30;;;;;;;36.78;22.05;;;2.10;99.90;;;;;;5227573;28;20017;-70
2022/04/20 04:25:01;;;;;;;36.25;19.58;;;2.20;99.90;;;;;;5227452;28;20032;-70
2022/04/20 04:27:32;;;;;;;27.38;16.52;;;2.40;99.90;;;;;;5227385;28;20024;-70
2022/04/20 04:30:04;;;;;;;31.67;16.85;;;2.40;99.90;;;;;;5227459;28;20741;-70
2022/04/20 04:32:35;;;;;;;29.08;17.45;;;2.50;99.90;;;;;;5226214;28;20468;-70
2022/04/20 04:35:08;;;;;;;30.15;17.90;;;2.50;99.90;;;;;;5227088;28;20025;-71
2022/04/20 04:37:39;;;;;;;27.90;17.88;;;2.50;99.90;;;;;;5226176;28;20029;-70
2022/04/20 04:40:10;;;;;;;31.75;17.15;;;2.70;99.90;;;;;;5227260;28;20021;-71
2022/04/20 04:42:41;;;;;;;30.77;16.52;;;3.00;99.90;;;;;;5227350;28;20021;-70
2022/04/20 04:50:50;;;;;;;26.38;16.58;;;3.50;99.90;;;;;;5227301;28;20222;-71
2022/04/20 04:53:21;;;;;;;26.67;16.48;;;3.70;99.90;;;;;;5227275;28;20492;-70
2022/04/20 04:55:52;;;;;;;25.63;15.07;;;3.70;99.90;;;;;;5227291;28;20346;-70
2022/04/20 04:58:23;;;;;;;26.65;16.38;;;4.10;99.90;;;;;;5225838;28;20439;-70
2022/04/20 05:00:54;;;;;;;25.42;16.65;;;4.30;99.90;;;;;;5225419;28;20021;-71
2022/04/20 05:03:25;;;;;;;25.08;15.88;;;4.40;99.90;;;;;;5226895;28;20119;-71
2022/04/20 05:05:55;;;;;;;26.55;16.98;;;4.40;99.90;;;;;;5225548;28;20049;-80
2022/04/20 05:08:26;;;;;;;25.42;16.25;;;4.80;99.90;;;;;;5225605;28;20048;-76
2022/04/20 05:10:57;;;;;;;24.23;15.77;;;4.70;99.90;;;;;;5225760;28;20126;-71
2022/04/20 05:13:28;;;;;;;23.27;15.88;;;4.40;99.90;;;;;;5226074;28;20413;-80
2022/04/20 05:15:59;;;;;;;21.58;14.65;;;4.80;99.90;;;;;;5233554;28;20111;-74
2022/04/20 05:18:30;;;;;;;25.80;15.65;;;5.10;99.90;;;;;;5250036;28;20107;-71
2022/04/20 05:21:00;;;;;;;22.95;14.30;;;5.10;99.90;;;;;;5235067;28;20025;-71
2022/04/20 05:23:32;;;;;;;25.58;15.70;;;5.50;99.90;;;;;;5230957;28;20472;-78
2022/04/20 05:26:03;;;;;;;23.77;15.38;;;5.50;99.90;;;;;;5230737;28;20024;-70
2022/04/20 05:28:33;;;;;;;24.15;15.45;;;5.20;99.90;;;;;;5234781;28;20037;-79
2022/04/20 05:31:04;;;;;;;25.25;16.48;;;5.40;99.90;;;;;;5238887;28;20028;-80
2022/04/20 05:33:35;;;;;;;23.40;15.45;;;5.70;99.90;;;;;;5246103;28;20370;-70
2022/04/20 05:36:06;;;;;;;22.75;15.88;;;6.20;99.90;;;;;;5230610;28;20052;-70
2022/04/20 05:41:41;;;;;;;22.98;15.60;;;6.70;99.90;;;;;;5230635;28;20028;-70
2022/04/20 05:44:12;;;;;;;23.80;15.40;;;7.10;99.90;;;;;;5234104;28;20032;-70
2022/04/20 05:46:43;;;;;;;20.90;15.30;;;7.40;99.90;;;;;;5241231;28;20028;-71
2022/04/20 05:49:14;;;;;;;20.17;15.02;;;7.80;99.90;;;;;;5242773;28;20041;-71
2022/04/20 05:51:44;;;;;;;20.83;14.13;;;7.80;99.90;;;;;;5230496;28;20342;-70
2022/04/20 05:54:15;;;;;;;18.30;14.15;;;8.10;99.90;;;;;;5230190;28;20051;-80
2022/04/20 05:56:46;;;;;;;18.40;13.93;;;8.20;99.90;;;;;;5230292;28;20025;-70
2022/04/20 05:59:17;;;;;;;17.67;11.82;;;8.30;99.90;;;;;;5230367;28;20451;-70
2022/04/20 06:01:48;;;;;;;15.07;11.60;;;8.00;99.90;;;;;;5230372;28;20067;-81
2022/04/20 06:04:19;;;;;;;13.05;10.18;;;8.40;99.90;;;;;;5229862;28;20032;-69
2022/04/20 06:06:50;;;;;;;10.65;8.77;;;8.60;99.90;;;;;;5228698;28;20381;-70
2022/04/20 06:09:20;;;;;;;11.23;8.75;;;8.70;99.90;;;;;;5228756;28;20044;-69
2022/04/20 06:11:53;;;;;;;7.97;7.15;;;8.70;99.90;;;;;;5229776;28;20029;-70
2022/04/20 06:14:24;;;;;;;11.25;8.40;;;8.60;99.90;;;;;;5229690;28;20036;-70
2022/04/20 06:16:55;;;;;;;11.07;8.23;;;9.00;99.90;;;;;;5229909;28;20013;-70
2022/04/20 06:19:26;;;;;;;9.95;8.30;;;9.10;99.90;;;;;;5228862;28;20055;-70
2022/04/20 06:21:56;;;;;;;11.15;8.68;;;9.20;99.90;;;;;;5245607;28;20495;-79
2022/04/20 06:24:27;;;;;;;8.73;7.82;;;9.30;99.90;;;;;;5238221;28;20115;-70
2022/04/20 06:26:58;;;;;;;9.70;8.70;;;9.50;99.90;;;;;;5243618;28;20021;-78
2022/04/20 06:29:29;;;;;;;10.23;7.30;;;10.00;99.90;;;;;;5243587;28;20040;-79
2022/04/20 06:32:01;;;;;;;9.27;7.03;;;9.90;99.90;;;;;;5237244;28;20018;-78
2022/04/20 06:34:32;;;;;;;9.27;7.05;;;9.60;99.90;;;;;;5229435;28;20032;-71
2022/04/20 06:37:05;;;;;;;9.00;8.00;;;9.90;99.90;;;;;;5228281;28;20033;-71
2022/04/20 06:39:36;;;;;;;9.07;6.97;;;10.60;99.90;;;;;;5235437;28;20525;-71
2022/04/20 06:42:07;;;;;;;10.50;7.18;;;10.30;99.90;;;;;;5236157;28;20036;-71
2022/04/20 06:44:38;;;;;;;7.68;6.40;;;10.90;99.90;;;;;;5242309;28;20028;-79
2022/04/20 06:47:09;;;;;;;8.83;5.30;;;10.70;99.90;;;;;;5244602;28;20369;-71
2022/04/20 06:49:41;;;;;;;6.18;5.40;;;10.60;99.90;;;;;;5235912;28;20040;-78
2022/04/20 07:00:40;;;;;;;6.85;4.68;;;10.80;99.90;;;;;;5234348;28;20445;-70
2022/04/20 07:03:11;;;;;;;4.72;4.00;;;10.70;99.90;;;;;;5247315;28;20093;-78
2022/04/20 07:05:42;;;;;;;4.30;3.88;;;10.70;99.90;;;;;;5240428;28;20048;-71
2022/04/20 07:08:13;;;;;;;3.53;3.22;;;11.10;99.90;;;;;;5234320;28;20420;-70
2022/04/20 07:10:44;;;;;;;3.80;3.38;;;11.00;99.90;;;;;;5236860;28;20017;-79
2022/04/20 07:13:16;;;;;;;3.78;3.47;;;11.00;99.90;;;;;;5239567;28;20024;-69
2022/04/20 07:15:47;;;;;;;5.35;3.65;;;10.90;99.90;;;;;;5240025;28;20017;-70
2022/04/20 07:18:18;;;;;;;4.60;3.53;;;11.40;99.90;;;;;;5239529;28;20024;-69
2022/04/20 07:20:49;;;;;;;4.05;3.35;;;11.50;99.90;;;;;;5241192;28;20024;-79
2022/04/20 07:23:20;;;;;;;5.18;4.40;;;11.10;99.90;;;;;;5239141;28;20495;-79
2022/04/20 07:25:51;;;;;;;5.75;3.22;;;11.30;99.90;;;;;;5233589;28;20021;-69
2022/04/20 07:28:22;;;;;;;5.70;3.95;;;10.90;99.90;;;;;;5231648;28;20119;-70
2022/04/20 07:30:53;;;;;;;4.28;3.83;;;11.60;99.90;;;;;;5239351;28;20089;-74
2022/04/20 07:33:24;;;;;;;4.68;3.50;;;11.20;99.90;;;;;;5234861;28;20413;-69
2022/04/20 07:35:54;;;;;;;5.32;4.13;;;11.70;99.90;;;;;;5228606;28;20021;-77
2022/04/20 07:38:27;;;;;;;4.53;3.95;;;11.90;99.90;;;;;;5236948;28;20082;-69
2022/04/20 07:40:57;;;;;;;6.93;3.55;;;11.70;99.90;;;;;;5248894;28;20024;-70
2022/04/20 07:43:28;;;;;;;4.70;4.20;;;11.80;99.90;;;;;;5239362;28;20043;-69
2022/04/20 07:45:59;;;;;;;4.88;4.25;;;11.80;99.90;;;;;;5249052;28;20032;-70
2022/04/20 07:48:30;;;;;;;5.10;4.60;;;11.80;99.90;;;;;;5229174;28;20069;-69
2022/04/20 07:51:01;;;;;;;5.43;4.93;;;12.10;99.90;;;;;;5233005;28;20016;-70
2022/04/20 07:53:32;;;;;;;5.40;4.43;;;12.30;99.90;;;;;;5248389;28;20029;-71
2022/04/20 07:56:03;;;;;;;4.75;3.90;;;12.60;99.90;;;;;;5248495;28;20073;-70
2022/04/20 07:58:35;;;;;;;5.57;5.00;;;12.60;99.90;;;;;;5248545;28;20032;-70
2022/04/20 08:01:05;;;;;;;6.03;4.50;;;12.70;99.90;;;;;;5247995;28;20027;-71
2022/04/20 08:03:37;;;;;;;6.40;4.70;;;12.50;99.90;;;;;;5229189;28;20025;-71
2022/04/20 08:06:07;;;;;;;7.07;4.65;;;12.90;99.90;;;;;;5235639;28;20033;-71
2022/04/20 08:08:39;;;;;;;5.18;4.43;;;13.00;99.90;;;;;;5224889;28;20519;-70
2022/04/20 08:11:11;;;;;;;5.10;4.30;;;12.90;99.90;;;;;;5229928;28;20119;-71
2022/04/20 08:16:31;;;;;;;5.90;5.07;;;13.00;99.90;;;;;;5227839;28;20042;-70
2022/04/20 08:19:07;;;;;;;4.90;3.83;;;13.10;99.90;;;;;;5240474;28;20029;-70
2022/04/20 08:21:38;;;;;;;7.57;4.50;;;12.70;99.90;;;;;;5248197;28;20055;-70
2022/04/20 08:24:09;;;;;;;5.20;4.70;;;13.30;99.90;;;;;;5248232;28;20048;-70
2022/04/20 08:26:39;;;;;;;4.82;4.28;;;13.10;99.90;;;;;;5247089;28;21171;-70
2022/04/20 08:29:11;;;;;;;6.65;4.70;;;13.10;99.90;;;;;;5239426;28;20102;-70
2022/04/20 08:31:42;;;;;;;4.85;4.30;;;12.60;99.90;;;;;;5248237;28;20063;-70
2022/04/20 08:34:13;;;;;;;5.60;5.00;;;13.30;99.90;;;;;;5248065;28;20371;-71
2022/04/20 08:36:44;;;;;;;5.90;4.57;;;12.90;99.90;;;;;;5232595;28;20043;-70
2022/04/20 08:39:14;;;;;;;4.80;4.32;;;12.70;99.90;;;;;;5234082;28;20424;-70
2022/04/20 08:41:51;;;;;;;6.65;4.68;;;13.40;99.90;;;;;;5241797;28;20074;-81
2022/04/20 08:44:28;;;;;;;8.45;5.10;;;13.00;99.90;;;;;;5229230;28;20052;-71
2022/04/20 08:47:01;;;;;;;5.55;4.85;;;12.80;99.90;;;;;;5228933;28;20021;-69
2022/04/20 08:49:32;;;;;;;6.93;5.35;;;13.20;99.90;;;;;;5227304;28;20404;-70
2022/04/20 08:54:54;;;;;;;6.75;4.95;;;13.30;99.90;;;;;;5250226;28;20047;-69
2022/04/20 08:57:25;;;;;;;6.95;5.15;;;13.70;99.90;;;;;;5252136;28;20056;-70
2022/04/20 08:59:57;;;;;;;5.50;4.72;;;13.40;99.90;;;;;;5243128;28;20021;-70
2022/04/20 09:02:29;;;;;;;8.25;6.30;;;13.10;99.90;;;;;;5252072;28;20063;-69
2022/04/20 09:05:00;;;;;;;8.40;5.97;;;13.70;99.90;;;;;;5244297;28;20045;-69
2022/04/20 09:07:31;;;;;;;7.25;5.72;;;13.40;99.90;;;;;;5251012;28;20419;-70
2022/04/20 09:10:02;;;;;;;6.43;5.47;;;13.40;99.90;;;;;;5251721;28;20036;-69
2022/04/20 09:12:33;;;;;;;6.50;5.35;;;12.80;99.90;;;;;;5247403;28;20432;-69
2022/04/20 09:15:04;;;;;;;10.95;5.63;;;13.60;99.90;;;;;;5230686;28;20031;-70
2022/04/20 09:17:47;;;;;;;8.32;5.68;;;13.20;99.90;;;;;;5233946;28;20040;-70
2022/04/20 09:20:18;;;;;;;7.30;5.63;;;13.50;99.90;;;;;;5230906;28;20036;-70
2022/04/20 09:23:00;;;;;;;6.72;5.22;;;14.20;99.90;;;;;;5230822;28;20025;-70
2022/04/20 09:25:38;;;;;;;6.25;4.07;;;14.40;99.90;;;;;;5235429;28;20094;-71
2022/04/20 09:28:09;;;;;;;6.22;4.30;;;14.10;99.90;;;;;;5236250;28;20052;-80
2022/04/20 09:30:42;;;;;;;7.15;4.80;;;13.30;99.90;;;;;;5241466;28;20028;-79
2022/04/20 09:33:15;;;;;;;6.65;5.47;;;13.00;99.90;;;;;;5251523;28;20020;-69
2022/04/20 09:35:48;;;;;;;5.60;4.80;;;13.70;99.90;;;;;;5251260;28;20340;-71
2022/04/20 09:38:21;;;;;;;6.07;5.03;;;13.60;99.90;;;;;;5251405;28;20036;-71
2022/04/20 09:40:52;;;;;;;5.30;4.75;;;14.10;99.90;;;;;;5251258;28;20024;-70
2022/04/20 09:43:22;;;;;;;4.93;3.90;;;13.70;99.90;;;;;;5251235;28;20375;-70
2022/04/20 09:49:12;;;;;;;4.88;4.32;;;13.60;99.90;;;;;;5246710;28;20044;-70
2022/04/20 09:51:43;;;;;;;5.13;4.07;;;14.00;99.90;;;;;;5248742;28;20039;-70
2022/04/20 09:54:28;;;;;;;5.65;5.05;;;13.60;99.90;;;;;;5230285;28;20018;-70
2022/04/20 09:57:12;;;;;;;6.20;3.78;;;13.50;99.90;;;;;;5230425;28;20147;-69
2022/04/20 09:59:57;;;;;;;4.93;4.43;;;14.40;99.90;;;;;;5230439;28;20436;-69
2022/04/20 10:02:29;;;;;;;5.78;3.65;;;14.00;99.90;;;;;;5229586;28;20036;-70
2022/04/20 10:05:00;;;;;;;4.63;3.75;;;14.50;99.90;;;;;;5227387;28;20048;-70
2022/04/20 10:07:31;;;;;;;7.70;4.13;;;14.20;99.90;;;;;;5236917;28;20040;-70
2022/04/20 10:10:04;;;;;;;5.90;3.60;;;14.30;99.90;;;;;;5241411;28;20356;-71
2022/04/20 10:12:38;;;;;;;4.43;3.83;;;14.20;99.90;;;;;;5231552;28;20043;-70
2022/04/20 10:18:00;;;;;;;3.95;3.30;;;14.50;99.90;;;;;;5230194;28;20535;-70
2022/04/20 10:20:33;;;;;;;3.90;3.50;;;15.00;99.90;;;;;;5229854;28;20056;-70
2022/04/20 10:23:06;;;;;;;4.20;3.55;;;14.90;99.90;;;;;;5229629;28;20095;-70
2022/04/20 10:25:39;;;;;;;5.03;3.75;;;14.50;99.90;;;;;;5229619;28;20048;-70
2022/04/20 10:28:19;;;;;;;5.25;3.38;;;14.80;99.90;;;;;;5232114;28;20058;-70
2022/04/20 10:31:11;;;;;;;4.22;3.75;;;15.10;99.90;;;;;;5233675;28;20025;-70
2022/04/20 10:33:43;;;;;;;7.22;4.45;;;14.70;99.90;;;;;;5244698;28;20031;-70
2022/04/20 10:36:18;;;;;;;4.85;3.92;;;15.10;99.90;;;;;;5248511;28;20036;-70
2022/04/20 10:39:20;;;;;;;4.93;4.35;;;15.00;99.90;;;;;;5229397;28;20060;-70
2022/04/20 10:42:11;;;;;;;4.78;3.90;;;15.50;99.90;;;;;;5228175;28;20078;-70
2022/04/20 10:45:05;;;;;;;5.93;3.78;;;14.20;99.90;;;;;;5229451;28;20040;-70
2022/04/20 10:47:42;;;;;;;5.03;4.18;;;15.40;99.90;;;;;;5229392;28;20025;-70
2022/04/20 10:50:21;;;;;;;4.72;4.00;;;15.30;99.90;;;;;;5235022;28;20043;-70
2022/04/20 10:53:11;;;;;;;4.43;4.03;;;14.40;99.90;;;;;;5239033;28;20033;-70
2022/04/20 10:55:52;;;;;;;4.28;3.90;;;14.50;99.90;;;;;;5228361;28;20068;-71
2022/04/20 10:58:23;;;;;;;4.97;3.97;;;15.50;99.90;;;;;;5249859;28;20033;-70
2022/04/20 11:01:10;;;;;;;4.53;3.60;;;15.40;99.90;;;;;;5249823;28;20330;-70
2022/04/20 11:04:02;;;;;;;5.10;3.58;;;15.40;99.90;;;;;;5249791;28;20103;-70
2022/04/20 11:07:01;;;;;;;5.28;3.75;;;14.70;99.90;;;;;;5249461;28;20044;-71
2022/04/20 11:09:41;;;;;;;4.45;4.05;;;15.90;99.90;;;;;;5243088;28;20072;-70
2022/04/20 11:21:07;;;;;;;6.95;4.05;;;15.20;99.90;;;;;;5244660;28;20530;-70
2022/04/20 11:23:58;;;;;;;6.35;4.15;;;15.60;99.90;;;;;;5233796;28;20036;-70
2022/04/20 11:26:39;;;;;;;4.22;3.83;;;15.50;99.90;;;;;;5249374;28;20046;-78
2022/04/20 11:29:11;;;;;;;5.45;4.70;;;15.40;99.90;;;;;;5235819;28;20029;-79
2022/04/20 11:31:51;;;;;;;4.70;4.20;;;15.10;99.90;;;;;;5242284;28;20081;-70
2022/04/20 11:34:22;;;;;;;4.72;3.92;;;15.60;99.90;;;;;;5233521;28;20534;-71
2022/04/20 11:36:55;;;;;;;9.18;4.55;;;15.90;99.90;;;;;;5247372;28;20024;-70
2022/04/20 11:39:28;;;;;;;6.32;4.40;;;15.80;99.90;;;;;;5249034;28;20024;-70
2022/04/20 11:42:04;;;;;;;7.38;3.95;;;15.80;99.90;;;;;;5237174;28;20082;-79
2022/04/20 11:44:35;;;;;;;4.30;3.80;;;15.60;99.90;;;;;;5228184;28;20515;-71
2022/04/20 11:47:07;;;;;;;4.80;3.65;;;15.90;99.90;;;;;;5228161;28;20021;-70
2022/04/20 11:49:44;;;;;;;7.05;3.80;;;15.90;99.90;;;;;;5229338;28;20473;-78
2022/04/20 11:52:17;;;;;;;5.15;4.65;;;15.60;99.90;;;;;;5238834;28;20025;-73
2022/04/20 11:54:47;;;;;;;6.65;4.07;;;15.40;99.90;;;;;;5247507;28;20537;-70
2022/04/20 11:57:18;;;;;;;4.13;3.55;;;16.00;99.90;;;;;;5248693;28;20146;-79
2022/04/20 11:59:50;;;;;;;7.68;3.70;;;16.00;99.90;;;;;;5231558;28;20338;-79
2022/04/20 12:02:21;;;;;;;3.75;3.45;;;15.90;99.90;;;;;;5227980;28;20029;-75
2022/04/20 12:05:12;;;;;;;4.53;4.07;;;16.00;99.90;;;;;;5226280;28;20178;-70
2022/04/20 12:07:43;;;;;;;4.60;4.10;;;15.40;99.90;;;;;;5227913;28;20485;-78
2022/04/20 12:10:14;;;;;;;4.50;3.85;;;16.00;99.90;;;;;;5227815;28;20032;-79
2022/04/20 12:12:45;;;;;;;5.03;3.85;;;15.80;99.90;;;;;;5232630;28;20036;-72
2022/04/20 12:15:21;;;;;;;4.43;3.63;;;16.10;99.90;;;;;;5235959;28;20029;-78
2022/04/20 12:17:51;;;;;;;4.80;3.22;;;16.10;99.90;;;;;;5236847;28;20031;-78
2022/04/20 12:20:25;;;;;;;4.15;3.75;;;15.90;99.90;;;;;;5248501;28;20453;-79
2022/04/20 12:23:06;;;;;;;3.97;3.60;;;16.80;99.90;;;;;;5231430;28;20357;-71
2022/04/20 12:25:40;;;;;;;4.00;3.60;;;16.30;99.90;;;;;;5227484;28;20112;-73
2022/04/20 12:31:01;;;;;;;4.53;3.70;;;16.30;99.90;;;;;;5239843;28;20039;-71
2022/04/20 12:33:32;;;;;;;5.40;4.03;;;16.30;99.90;;;;;;5235371;28;20302;-71
2022/04/20 12:36:11;;;;;;;3.97;3.60;;;16.40;99.90;;;;;;5227449;28;20072;-71
2022/04/20 12:38:45;;;;;;;5.43;3.33;;;17.10;99.90;;;;;;5237517;28;20087;-81
2022/04/20 12:41:38;;;;;;;4.82;3.78;;;16.90;99.90;;;;;;5227445;28;20088;-80
2022/04/20 12:44:35;;;;;;;4.57;3.75;;;16.50;99.90;;;;;;5226067;28;20028;-77
2022/04/20 12:47:10;;;;;;;4.13;3.17;;;16.50;99.90;;;;;;5241650;28;20024;-72
2022/04/20 12:49:51;;;;;;;3.65;3.35;;;16.80;99.90;;;;;;5241010;28;20040;-72
2022/04/20 12:52:22;;;;;;;;;;;16.50;99.90;;;;;;5227791;28;20027;-72
2022/04/20 12:55:03;;;;;;;3.67;3.17;;;17.00;99.80;;;;;;5229433;28;19973;-72
2022/04/20 13:02:01;;;;;;;4.50;2.97;;;17.00;96.40;;;;;;5240253;28;20376;-72
2022/04/20 13:03:37;;;;;;;4.35;3.63;;;16.60;99.90;;;;;;5234525;28;20166;-73
2022/04/20 13:06:10;;;;;;;4.57;3.40;;;16.70;99.90;;;;;;5247604;28;20116;-76
2022/04/20 13:08:45;;;;;;;3.88;3.38;;;16.80;99.90;;;;;;5240180;28;20041;-72
2022/04/20 13:11:17;;;;;;;3.78;3.42;;;17.30;99.90;;;;;;5225737;28;20108;-72
2022/04/20 13:13:48;;;;;;;3.45;3.15;;;16.80;99.50;;;;;;5225892;28;20020;-72
2022/04/20 13:16:19;;;;;;;3.53;3.05;;;16.90;97.40;;;;;;5232995;28;20159;-72
2022/04/20 13:18:51;;;;;;;5.00;2.95;;;16.40;98.80;;;;;;5228946;28;20033;-73
2022/04/20 13:21:23;;;;;;;4.10;3.10;;;16.70;96.20;;;;;;5227122;28;20013;-72
2022/04/20 13:23:54;;;;;;;4.93;3.50;;;17.20;97.20;;;;;;5226997;28;20462;-72
2022/04/20 13:29:16;;;;;;;3.38;3.00;;;16.60;96.40;;;;;;5226542;28;20048;-79
2022/04/20 13:31:46;;;;;;;4.88;3.05;;;16.90;95.20;;;;;;5226228;28;20029;-78
2022/04/20 13:34:17;;;;;;;3.83;2.72;;;16.60;95.20;;;;;;5226456;28;20048;-72
2022/04/20 13:36:48;;;;;;;3.15;2.80;;;16.40;92.10;;;;;;5226796;28;20021;-72
2022/04/20 13:39:20;;;;;;;4.53;3.00;;;16.50;91.10;;;;;;5228656;28;20392;-79
2022/04/20 13:41:51;;;;;;;3.13;2.58;;;17.20;91.70;;;;;;5230477;28;20020;-73
2022/04/20 13:44:21;;;;;;;5.18;3.03;;;17.30;92.60;;;;;;5230448;28;20480;-74
2022/04/20 13:46:52;;;;;;;3.13;2.80;;;16.90;91.50;;;;;;5230436;28;20096;-72
2022/04/20 13:49:25;;;;;;;5.13;2.65;;;16.80;90.00;;;;;;5229202;28;20178;-78
2022/04/20 13:51:56;;;;;;;4.57;3.05;;;17.00;88.40;;;;;;5230429;28;20025;-73
2022/04/20 13:54:26;;;;;;;3.20;2.83;;;17.10;87.60;;;;;;5229189;28;20025;-73
2022/04/20 13:56:57;;;;;;;8.25;2.60;;;16.80;87.20;;;;;;5230311;28;20063;-73
2022/04/20 13:59:28;;;;;;;3.85;2.72;;;16.80;88.80;;;;;;5230019;28;20407;-79
2022/04/20 14:02:01;;;;;;;3.30;2.95;;;16.80;87.20;;;;;;5230209;28;20353;-72
2022/04/20 14:04:31;;;;;;;2.65;2.40;;;16.80;89.40;;;;;;5229765;28;20032;-72